createdAt,value
2023-01-01T00:03:59.996Z,97878.22
2023-01-01T00:08:05.227Z,97872.09
2023-01-01T00:12:07.650Z,97873.13
2023-01-01T00:16:14.216Z,97874.84
2023-01-01T00:20:16.642Z,97881.88
2023-01-01T00:24:18.677Z,97893.34
2023-01-01T00:28:20.684Z,97888.00
2023-01-01T00:32:23.348Z,97883.59
2023-01-01T00:36:27.222Z,97882.81
2023-01-01T00:40:29.332Z,97879.56
2023-01-01T00:44:31.392Z,97882.22
2023-01-01T00:48:33.745Z,97872.34
2023-01-01T00:52:35.739Z,97865.31
2023-01-01T00:56:37.748Z,97862.53
2023-01-01T01:00:39.772Z,97859.72
2023-01-01T01:04:41.832Z,97876.38
2023-01-01T01:08:46.211Z,97870.44
2023-01-01T01:12:48.280Z,97874.13
2023-01-01T01:16:50.380Z,97874.31
2023-01-01T01:20:53.764Z,97867.53
2023-01-01T01:24:56.546Z,97877.38
2023-01-01T01:28:59.081Z,97876.09
2023-01-01T01:33:01.072Z,97869.91
2023-01-01T01:37:03.253Z,97875.00
2023-01-01T01:41:06.028Z,97877.19
2023-01-01T01:45:10.955Z,97892.38
2023-01-01T01:49:18.859Z,97890.84
2023-01-01T01:53:24.784Z,97899.91
2023-01-01T01:57:27.391Z,97901.06
2023-01-01T02:01:29.841Z,97905.56
2023-01-01T02:05:34.388Z,97923.28
2023-01-01T02:09:37.278Z,97940.09
2023-01-01T02:13:39.528Z,97954.16
2023-01-01T02:17:57.846Z,97957.72
2023-01-01T02:22:10.397Z,97961.44
2023-01-01T02:26:42.563Z,97945.50
2023-01-01T02:30:47.358Z,97941.63
2023-01-01T02:34:57.528Z,97959.44
2023-01-01T02:39:04.105Z,97939.72
2023-01-01T02:43:07.013Z,97958.19
2023-01-01T02:47:11.919Z,97939.03
2023-01-01T02:51:13.885Z,97927.72
2023-01-01T02:55:43.730Z,97921.38
2023-01-01T03:00:27.621Z,97913.50
2023-01-01T03:04:46.230Z,97934.47
2023-01-01T03:09:06.571Z,97915.25
2023-01-01T03:13:33.598Z,97919.66
2023-01-01T03:17:41.356Z,97929.25
2023-01-01T03:21:46.978Z,97924.78
2023-01-01T03:25:52.212Z,97930.06
2023-01-01T03:29:57.656Z,97920.66
2023-01-01T03:34:14.883Z,97945.34
2023-01-01T03:38:26.479Z,97945.81
2023-01-01T03:42:46.669Z,97945.97
2023-01-01T03:46:48.996Z,97942.66
2023-01-01T03:51:10.032Z,97945.63
2023-01-01T03:55:27.304Z,97954.50
2023-01-01T04:00:09.900Z,97952.88
2023-01-01T04:04:16.456Z,97949.44
2023-01-01T04:08:19.155Z,97945.19
2023-01-01T04:12:21.616Z,97950.59
2023-01-01T04:16:23.826Z,97939.22
2023-01-01T04:20:26.168Z,97954.91
2023-01-01T04:24:28.922Z,97947.03
2023-01-01T04:28:30.960Z,97951.22
2023-01-01T04:32:33.292Z,97937.22
2023-01-01T04:36:35.363Z,97954.00
2023-01-01T04:40:37.368Z,97965.44
2023-01-01T04:44:40.595Z,97962.88
2023-01-01T04:48:42.611Z,97975.19
2023-01-01T04:52:44.652Z,97980.59
2023-01-01T04:56:46.760Z,97992.84
2023-01-01T05:00:50.559Z,97994.00
2023-01-01T05:04:52.627Z,97993.44
2023-01-01T05:08:56.110Z,97988.19
2023-01-01T05:12:58.143Z,97981.22
2023-01-01T05:17:00.148Z,97989.88
2023-01-01T05:21:08.821Z,98003.59
2023-01-01T05:25:10.820Z,97997.47
2023-01-01T05:29:16.680Z,98006.09
2023-01-01T05:33:20.407Z,98029.53
2023-01-01T05:37:22.540Z,98023.53
2023-01-01T05:41:24.695Z,98024.56
2023-01-01T05:45:26.716Z,98010.72
2023-01-01T05:49:28.961Z,98022.84
2023-01-01T05:53:31.259Z,98021.13
2023-01-01T05:57:33.297Z,98021.44
2023-01-01T06:01:40.166Z,98032.41
2023-01-01T06:05:47.399Z,98018.22
2023-01-01T06:09:49.404Z,98033.91
2023-01-01T06:13:53.139Z,98019.00
2023-01-01T06:17:55.156Z,98048.38
2023-01-01T06:21:57.173Z,98031.69
2023-01-01T06:26:08.418Z,98033.94
2023-01-01T06:30:10.812Z,98036.16
2023-01-01T06:34:12.820Z,98042.34
2023-01-01T06:38:14.848Z,98048.06
2023-01-01T06:42:16.891Z,98045.66
2023-01-01T06:46:26.348Z,98051.94
2023-01-01T06:50:28.506Z,98059.00
2023-01-01T06:54:30.762Z,98058.03
2023-01-01T06:58:33.204Z,98072.75
2023-01-01T07:02:35.530Z,98074.50
2023-01-01T07:06:38.723Z,98071.88
2023-01-01T07:10:40.736Z,98076.91
2023-01-01T07:14:42.766Z,98069.66
2023-01-01T07:18:45.938Z,98073.91
2023-01-01T07:22:47.983Z,98089.53
2023-01-01T07:26:50.062Z,98086.13
2023-01-01T07:30:56.027Z,98085.22
2023-01-01T07:34:58.102Z,98098.34
2023-01-01T07:39:00.201Z,98105.38
2023-01-01T07:43:02.746Z,98114.13
2023-01-01T07:47:14.042Z,98117.69
2023-01-01T07:51:16.038Z,98122.25
2023-01-01T07:55:19.844Z,98140.66
2023-01-01T07:59:21.889Z,98137.16
2023-01-01T08:03:24.999Z,98124.72
2023-01-01T08:07:27.123Z,98117.47
2023-01-01T08:11:29.114Z,98137.19
2023-01-01T08:15:31.858Z,98133.34
2023-01-01T08:19:33.928Z,98141.72
2023-01-01T08:23:35.918Z,98145.72
2023-01-01T08:27:38.289Z,98146.34
2023-01-01T08:31:41.190Z,98140.00
2023-01-01T08:35:45.635Z,98150.25
2023-01-01T08:39:51.998Z,98158.75
2023-01-01T08:43:54.107Z,98168.97
2023-01-01T08:47:56.171Z,98177.34
2023-01-01T08:51:58.235Z,98171.91
2023-01-01T08:56:09.035Z,98177.97
2023-01-01T09:00:13.526Z,98179.66
2023-01-01T09:04:17.147Z,98190.06
2023-01-01T09:08:19.792Z,98199.72
2023-01-01T09:12:21.824Z,98193.38
2023-01-01T09:16:25.125Z,98187.25
2023-01-01T09:20:27.373Z,98193.28
2023-01-01T09:24:29.384Z,98201.94
2023-01-01T09:28:31.567Z,98201.44
2023-01-01T09:32:33.604Z,98191.72
2023-01-01T09:36:36.007Z,98208.19
2023-01-01T09:41:00.271Z,98207.78
2023-01-01T09:45:19.878Z,98209.84
2023-01-01T09:49:35.304Z,98205.53
2023-01-01T09:54:13.245Z,98199.97
2023-01-01T09:58:15.517Z,98199.03
2023-01-01T10:02:51.495Z,98204.25
2023-01-01T10:07:21.909Z,98207.63
2023-01-01T10:11:38.021Z,98206.78
2023-01-01T10:15:49.568Z,98213.91
2023-01-01T10:19:58.744Z,98207.88
2023-01-01T10:24:27.765Z,98219.19
2023-01-01T10:28:49.431Z,98197.94
2023-01-01T10:32:55.724Z,98207.50
2023-01-01T10:37:00.341Z,98203.66
2023-01-01T10:41:17.135Z,98203.53
2023-01-01T10:45:34.241Z,98197.28
2023-01-01T10:49:54.174Z,98191.88
2023-01-01T10:53:56.421Z,98195.28
2023-01-01T10:57:58.440Z,98200.47
2023-01-01T11:02:15.794Z,98191.41
2023-01-01T11:06:17.844Z,98197.28
2023-01-01T11:10:25.726Z,98198.03
2023-01-01T11:14:36.773Z,98212.00
2023-01-01T11:18:38.812Z,98206.63
2023-01-01T11:22:46.767Z,98201.28
2023-01-01T11:26:54.521Z,98191.66
2023-01-01T11:31:02.302Z,98187.41
2023-01-01T11:35:07.844Z,98180.69
2023-01-01T11:39:12.943Z,98169.47
2023-01-01T11:43:24.386Z,98169.38
2023-01-01T11:47:31.818Z,98164.69
2023-01-01T11:51:33.963Z,98163.69
2023-01-01T11:55:44.977Z,98172.22
2023-01-01T11:59:53.247Z,98187.78
2023-01-01T12:04:40.506Z,98186.50
2023-01-01T12:08:51.365Z,98184.66
2023-01-01T12:13:00.887Z,98193.31
2023-01-01T12:17:10.887Z,98192.31
2023-01-01T12:21:25.092Z,98198.25
2023-01-01T12:25:38.598Z,98189.41
2023-01-01T12:30:11.938Z,98188.56
2023-01-01T12:34:27.028Z,98187.72
2023-01-01T12:38:54.054Z,98191.13
2023-01-01T12:43:07.605Z,98201.50
2023-01-01T12:47:50.196Z,98194.88
2023-01-01T12:52:28.475Z,98182.94
2023-01-01T12:57:00.075Z,98195.03
2023-01-01T13:01:22.572Z,98191.28
2023-01-01T13:05:35.379Z,98183.22
2023-01-01T13:09:45.519Z,98190.16
2023-01-01T13:13:47.568Z,98189.25
2023-01-01T13:17:53.460Z,98188.06
2023-01-01T13:21:55.525Z,98181.84
2023-01-01T13:26:22.838Z,98185.34
2023-01-01T13:30:46.023Z,98196.06
2023-01-01T13:35:02.615Z,98195.63
2023-01-01T13:39:04.743Z,98179.19
2023-01-01T13:43:18.529Z,98184.91
2023-01-01T13:47:50.768Z,98190.69
2023-01-01T13:52:16.751Z,98201.31
2023-01-01T13:56:33.818Z,98197.34
2023-01-01T14:01:13.264Z,98195.00
2023-01-01T14:05:22.888Z,98200.47
2023-01-01T14:09:25.233Z,98192.69
2023-01-01T14:13:39.096Z,98191.09
2023-01-01T14:17:44.336Z,98185.38
2023-01-01T14:21:46.676Z,98190.72
2023-01-01T14:25:49.568Z,98203.41
2023-01-01T14:29:51.958Z,98216.03
2023-01-01T14:33:54.272Z,98207.53
2023-01-01T14:37:56.845Z,98204.97
2023-01-01T14:42:09.011Z,98198.25
2023-01-01T14:46:16.771Z,98189.81
2023-01-01T14:50:31.741Z,98189.81
2023-01-01T14:54:37.963Z,98182.13
2023-01-01T14:58:40.678Z,98179.66
2023-01-01T15:02:42.820Z,98194.84
2023-01-01T15:06:44.905Z,98191.75
2023-01-01T15:10:47.450Z,98189.47
2023-01-01T15:14:52.340Z,98179.28
2023-01-01T15:18:57.211Z,98189.09
2023-01-01T15:23:03.533Z,98192.69
2023-01-01T15:27:25.473Z,98194.53
2023-01-01T15:31:43.710Z,98195.44
2023-01-01T15:35:50.638Z,98192.81
2023-01-01T15:39:56.497Z,98190.28
2023-01-01T15:44:29.299Z,98182.63
2023-01-01T15:48:34.917Z,98180.22
2023-01-01T15:52:38.099Z,98179.50
2023-01-01T15:56:40.779Z,98187.38
2023-01-01T16:00:42.815Z,98186.63
2023-01-01T16:04:47.113Z,98190.25
2023-01-01T16:08:50.616Z,98182.34
2023-01-01T16:12:52.780Z,98187.94
2023-01-01T16:17:00.501Z,98193.22
2023-01-01T16:21:04.302Z,98182.59
2023-01-01T16:25:13.557Z,98192.34
2023-01-01T16:29:16.090Z,98181.13
2023-01-01T16:33:20.387Z,98175.00
2023-01-01T16:37:23.305Z,98175.00
2023-01-01T16:41:28.642Z,98166.31
2023-01-01T16:45:30.717Z,98160.16
2023-01-01T16:49:32.819Z,98166.31
2023-01-01T16:53:36.291Z,98162.63
2023-01-01T16:57:39.903Z,98154.59
2023-01-01T17:01:42.124Z,98161.41
2023-01-01T17:05:44.855Z,98150.69
2023-01-01T17:09:47.032Z,98141.72
2023-01-01T17:13:49.137Z,98135.53
2023-01-01T17:17:51.116Z,98142.56
2023-01-01T17:21:53.169Z,98121.28
2023-01-01T17:25:55.208Z,98129.78
2023-01-01T17:29:57.220Z,98128.00
2023-01-01T17:33:59.501Z,98122.69
2023-01-01T17:38:01.524Z,98139.53
2023-01-01T17:42:03.675Z,98144.03
2023-01-01T17:46:12.907Z,98144.22
2023-01-01T17:50:15.783Z,98142.34
2023-01-01T17:54:17.800Z,98121.28
2023-01-01T17:58:19.816Z,98134.16
2023-01-01T18:02:22.001Z,98110.69
2023-01-01T18:06:24.955Z,98103.78
2023-01-01T18:10:26.943Z,98095.38
2023-01-01T18:14:28.956Z,98096.66
2023-01-01T18:18:31.170Z,98091.63
2023-01-01T18:22:36.780Z,98096.44
2023-01-01T18:26:43.699Z,98094.19
2023-01-01T18:30:45.732Z,98090.31
2023-01-01T18:34:48.503Z,98091.44
2023-01-01T18:39:17.531Z,98088.81
2023-01-01T18:43:24.927Z,98082.81
2023-01-01T18:47:27.310Z,98074.34
2023-01-01T18:51:29.665Z,98076.06
2023-01-01T18:55:32.235Z,98075.16
2023-01-01T18:59:37.795Z,98057.59
2023-01-01T19:03:41.556Z,98061.09
2023-01-01T19:07:49.896Z,98053.44
2023-01-01T19:11:54.120Z,98051.31
2023-01-01T19:16:11.573Z,98046.03
2023-01-01T19:20:17.283Z,98032.38
2023-01-01T19:24:30.209Z,98042.47
2023-01-01T19:28:35.112Z,98021.28
2023-01-01T19:32:37.571Z,98011.34
2023-01-01T19:36:40.223Z,98009.03
2023-01-01T19:40:42.328Z,98015.78
2023-01-01T19:44:44.369Z,98002.31
2023-01-01T19:48:46.418Z,98004.88
2023-01-01T19:52:48.485Z,97996.97
2023-01-01T19:56:50.883Z,97994.59
2023-01-01T20:00:53.233Z,97984.00
2023-01-01T20:04:55.345Z,97983.06
2023-01-01T20:08:57.452Z,97971.38
2023-01-01T20:12:59.819Z,97979.84
2023-01-01T20:17:02.328Z,97977.06
2023-01-01T20:21:26.333Z,97979.41
2023-01-01T20:25:28.901Z,97982.66
2023-01-01T20:29:30.923Z,97975.38
2023-01-01T20:33:32.945Z,97978.47
2023-01-01T20:37:37.862Z,97975.53
2023-01-01T20:41:39.962Z,97968.31
2023-01-01T20:45:41.987Z,97963.91
2023-01-01T20:49:44.114Z,97971.56
2023-01-01T20:53:46.177Z,97962.31
2023-01-01T20:57:48.210Z,97982.28
2023-01-01T21:01:50.370Z,97970.06
2023-01-01T21:05:52.689Z,97955.28
2023-01-01T21:09:54.683Z,97965.88
2023-01-01T21:13:56.761Z,97974.66
2023-01-01T21:17:59.539Z,97969.50
2023-01-01T21:22:01.560Z,97938.19
2023-01-01T21:26:13.877Z,97942.28
2023-01-01T21:30:15.963Z,97947.41
2023-01-01T21:34:48.928Z,97934.56
2023-01-01T21:38:52.312Z,97947.28
2023-01-01T21:42:57.758Z,97947.88
2023-01-01T21:47:02.115Z,97951.56
2023-01-01T21:51:18.504Z,97957.25
2023-01-01T21:55:46.396Z,97946.22
2023-01-01T21:59:50.064Z,97942.13
2023-01-01T22:04:02.407Z,97951.22
2023-01-01T22:08:25.110Z,97942.13
2023-01-01T22:12:29.477Z,97940.56
2023-01-01T22:16:31.558Z,97943.56
2023-01-01T22:20:37.009Z,97967.75
2023-01-01T22:24:39.322Z,97965.28
2023-01-01T22:28:44.230Z,97964.03
2023-01-01T22:32:50.632Z,97958.75
2023-01-01T22:36:53.619Z,97942.03
2023-01-01T22:40:56.587Z,97925.28
2023-01-01T22:44:59.315Z,97953.31
2023-01-01T22:49:11.125Z,97955.69
2023-01-01T22:53:13.154Z,97942.03
2023-01-01T22:57:15.154Z,97938.88
2023-01-01T23:01:17.196Z,97946.03
2023-01-01T23:05:19.200Z,97943.47
2023-01-01T23:09:21.453Z,97939.72
2023-01-01T23:13:42.085Z,97942.19
2023-01-01T23:17:44.070Z,97948.22
2023-01-01T23:21:46.719Z,97939.41
2023-01-01T23:25:49.187Z,97930.66
2023-01-01T23:29:52.820Z,97919.84
2023-01-01T23:33:56.217Z,97952.38
2023-01-01T23:37:59.025Z,97947.38
2023-01-01T23:42:01.026Z,97937.69
2023-01-01T23:46:03.211Z,97922.06
2023-01-01T23:50:05.903Z,97915.25
2023-01-01T23:54:07.998Z,97916.47
2023-01-01T23:58:10.050Z,97913.03
